sensor_id;sensor_type;location;lat;lon;timestamp;P1;durP1;ratioP1;P2;durP2;ratioP2
45970;SDS011;31681;48.982;8.394;2022-10-22T00:00:22;0.50;;;0.50;;
45970;SDS011;31681;48.982;8.394;2022-10-22T00:02:48;2.50;;;0.35;;
45970;SDS011;31681;48.982;8.394;2022-10-22T00:05:14;0.32;;;0.30;;
45970;SDS011;31681;48.982;8.394;2022-10-22T00:07:39;2.22;;;0.38;;
45970;SDS011;31681;48.982;8.394;2022-10-22T00:10:05;0.85;;;0.32;;
45970;SDS011;31681;48.982;8.394;2022-10-22T00:12:31;1.98;;;1.23;;
45970;SDS011;31681;48.982;8.394;2022-10-22T00:14:56;1.50;;;0.50;;
45970;SDS011;31681;48.982;8.394;2022-10-22T00:17:22;1.80;;;0.50;;
45970;SDS011;31681;48.982;8.394;2022-10-22T00:19:47;2.00;;;0.35;;
45970;SDS011;31681;48.982;8.394;2022-10-22T00:22:13;0.40;;;0.30;;
45970;SDS011;31681;48.982;8.394;2022-10-22T00:24:38;1.85;;;0.95;;
45970;SDS011;31681;48.982;8.394;2022-10-22T00:27:05;4.28;;;0.40;;
45970;SDS011;31681;48.982;8.394;2022-10-22T00:29:32;0.38;;;0.38;;
45970;SDS011;31681;48.982;8.394;2022-10-22T00:31:57;1.30;;;0.30;;
45970;SDS011;31681;48.982;8.394;2022-10-22T00:34:23;0.40;;;0.40;;
45970;SDS011;31681;48.982;8.394;2022-10-22T00:36:49;0.30;;;0.30;;
45970;SDS011;31681;48.982;8.394;2022-10-22T00:39:16;1.90;;;0.50;;
45970;SDS011;31681;48.982;8.394;2022-10-22T00:41:44;0.40;;;0.40;;
45970;SDS011;31681;48.982;8.394;2022-10-22T00:47:15;0.32;;;0.32;;
45970;SDS011;31681;48.982;8.394;2022-10-22T00:49:42;0.40;;;0.40;;
45970;SDS011;31681;48.982;8.394;2022-10-22T00:52:08;0.22;;;0.22;;
45970;SDS011;31681;48.982;8.394;2022-10-22T00:54:35;0.40;;;0.40;;
45970;SDS011;31681;48.982;8.394;2022-10-22T00:57:01;0.43;;;0.43;;
45970;SDS011;31681;48.982;8.394;2022-10-22T00:59:27;0.38;;;0.38;;
45970;SDS011;31681;48.982;8.394;2022-10-22T01:01:52;3.40;;;0.30;;
45970;SDS011;31681;48.982;8.394;2022-10-22T01:04:18;1.77;;;0.40;;
45970;SDS011;31681;48.982;8.394;2022-10-22T01:06:44;0.20;;;0.20;;
45970;SDS011;31681;48.982;8.394;2022-10-22T01:16:54;0.45;;;0.30;;
45970;SDS011;31681;48.982;8.394;2022-10-22T01:19:35;1.77;;;0.40;;
45970;SDS011;31681;48.982;8.394;2022-10-22T01:22:27;0.43;;;0.35;;
45970;SDS011;31681;48.982;8.394;2022-10-22T01:28:20;0.28;;;0.28;;
45970;SDS011;31681;48.982;8.394;2022-10-22T01:30:24;1.00;;;0.40;;
45970;SDS011;31681;48.982;8.394;2022-10-22T01:32:51;1.92;;;0.30;;
45970;SDS011;31681;48.982;8.394;2022-10-22T01:35:30;2.08;;;0.45;;
45970;SDS011;31681;48.982;8.394;2022-10-22T01:38:01;0.38;;;0.38;;
45970;SDS011;31681;48.982;8.394;2022-10-22T01:40:28;0.63;;;0.30;;
45970;SDS011;31681;48.982;8.394;2022-10-22T01:42:55;0.93;;;0.63;;
45970;SDS011;31681;48.982;8.394;2022-10-22T01:45:21;0.40;;;0.40;;
45970;SDS011;31681;48.982;8.394;2022-10-22T01:47:51;1.27;;;0.40;;
45970;SDS011;31681;48.982;8.394;2022-10-22T01:50:26;0.40;;;0.40;;
45970;SDS011;31681;48.982;8.394;2022-10-22T02:00:57;5.90;;;0.47;;
45970;SDS011;31681;48.982;8.394;2022-10-22T02:03:25;0.20;;;0.20;;
45970;SDS011;31681;48.982;8.394;2022-10-22T02:05:58;0.65;;;0.30;;
45970;SDS011;31681;48.982;8.394;2022-10-22T02:08:31;0.30;;;0.30;;
45970;SDS011;31681;48.982;8.394;2022-10-22T02:10:59;0.52;;;0.50;;
45970;SDS011;31681;48.982;8.394;2022-10-22T02:16:17;1.02;;;0.50;;
45970;SDS011;31681;48.982;8.394;2022-10-22T02:18:47;1.63;;;0.40;;
45970;SDS011;31681;48.982;8.394;2022-10-22T02:21:16;0.95;;;0.63;;
45970;SDS011;31681;48.982;8.394;2022-10-22T02:23:41;1.00;;;0.45;;
45970;SDS011;31681;48.982;8.394;2022-10-22T02:29:02;1.67;;;0.60;;
45970;SDS011;31681;48.982;8.394;2022-10-22T02:31:35;0.43;;;0.40;;
45970;SDS011;31681;48.982;8.394;2022-10-22T02:34:06;2.08;;;0.43;;
45970;SDS011;31681;48.982;8.394;2022-10-22T02:36:34;0.73;;;0.50;;
45970;SDS011;31681;48.982;8.394;2022-10-22T02:39:02;2.17;;;0.40;;
45970;SDS011;31681;48.982;8.394;2022-10-22T02:41:27;1.33;;;1.20;;
45970;SDS011;31681;48.982;8.394;2022-10-22T02:43:54;3.25;;;0.70;;
45970;SDS011;31681;48.982;8.394;2022-10-22T02:46:20;0.30;;;0.30;;
45970;SDS011;31681;48.982;8.394;2022-10-22T02:48:45;3.15;;;0.57;;
45970;SDS011;31681;48.982;8.394;2022-10-22T02:51:11;0.57;;;0.57;;
45970;SDS011;31681;48.982;8.394;2022-10-22T02:53:37;0.90;;;0.50;;
45970;SDS011;31681;48.982;8.394;2022-10-22T02:56:02;6.10;;;0.65;;
45970;SDS011;31681;48.982;8.394;2022-10-22T02:58:28;0.40;;;0.38;;
45970;SDS011;31681;48.982;8.394;2022-10-22T03:00:53;2.17;;;0.50;;
45970;SDS011;31681;48.982;8.394;2022-10-22T03:03:18;1.98;;;0.57;;
45970;SDS011;31681;48.982;8.394;2022-10-22T03:05:44;3.03;;;0.45;;
45970;SDS011;31681;48.982;8.394;2022-10-22T03:08:09;1.55;;;0.40;;
45970;SDS011;31681;48.982;8.394;2022-10-22T03:10:35;2.78;;;0.60;;
45970;SDS011;31681;48.982;8.394;2022-10-22T03:13:00;4.20;;;0.50;;
45970;SDS011;31681;48.982;8.394;2022-10-22T03:15:26;1.58;;;0.50;;
45970;SDS011;31681;48.982;8.394;2022-10-22T03:17:51;1.75;;;0.43;;
45970;SDS011;31681;48.982;8.394;2022-10-22T03:20:17;1.73;;;0.32;;
45970;SDS011;31681;48.982;8.394;2022-10-22T03:22:42;5.97;;;0.50;;
45970;SDS011;31681;48.982;8.394;2022-10-22T03:25:13;0.57;;;0.57;;
45970;SDS011;31681;48.982;8.394;2022-10-22T03:27:43;0.65;;;0.50;;
45970;SDS011;31681;48.982;8.394;2022-10-22T03:30:10;2.63;;;0.40;;
45970;SDS011;31681;48.982;8.394;2022-10-22T03:32:35;0.50;;;0.50;;
45970;SDS011;31681;48.982;8.394;2022-10-22T03:35:01;1.10;;;0.50;;
45970;SDS011;31681;48.982;8.394;2022-10-22T03:37:26;0.50;;;0.50;;
45970;SDS011;31681;48.982;8.394;2022-10-22T03:39:52;0.50;;;0.50;;
45970;SDS011;31681;48.982;8.394;2022-10-22T03:42:19;0.50;;;0.50;;
45970;SDS011;31681;48.982;8.394;2022-10-22T03:44:45;0.50;;;0.40;;
45970;SDS011;31681;48.982;8.394;2022-10-22T03:47:11;0.52;;;0.52;;
45970;SDS011;31681;48.982;8.394;2022-10-22T03:49:37;0.95;;;0.60;;
45970;SDS011;31681;48.982;8.394;2022-10-22T03:52:08;1.27;;;0.77;;
45970;SDS011;31681;48.982;8.394;2022-10-22T03:54:35;2.42;;;0.60;;
45970;SDS011;31681;48.982;8.394;2022-10-22T03:57:02;1.98;;;0.70;;
45970;SDS011;31681;48.982;8.394;2022-10-22T03:59:32;1.02;;;0.65;;
45970;SDS011;31681;48.982;8.394;2022-10-22T04:02:02;1.02;;;0.70;;
45970;SDS011;31681;48.982;8.394;2022-10-22T04:04:28;1.20;;;0.60;;
45970;SDS011;31681;48.982;8.394;2022-10-22T04:06:53;1.30;;;0.73;;
45970;SDS011;31681;48.982;8.394;2022-10-22T04:09:19;0.80;;;0.77;;
45970;SDS011;31681;48.982;8.394;2022-10-22T04:11:44;1.38;;;0.70;;
45970;SDS011;31681;48.982;8.394;2022-10-22T04:14:10;3.40;;;0.80;;
45970;SDS011;31681;48.982;8.394;2022-10-22T04:16:37;1.55;;;0.82;;
45970;SDS011;31681;48.982;8.394;2022-10-22T04:19:03;0.50;;;0.50;;
45970;SDS011;31681;48.982;8.394;2022-10-22T04:21:28;2.88;;;0.50;;
45970;SDS011;31681;48.982;8.394;2022-10-22T04:23:53;2.67;;;0.60;;
45970;SDS011;31681;48.982;8.394;2022-10-22T04:26:19;0.80;;;0.60;;
45970;SDS011;31681;48.982;8.394;2022-10-22T04:28:45;1.10;;;0.70;;
45970;SDS011;31681;48.982;8.394;2022-10-22T04:31:13;0.88;;;0.52;;
45970;SDS011;31681;48.982;8.394;2022-10-22T04:33:39;1.92;;;1.10;;
45970;SDS011;31681;48.982;8.394;2022-10-22T04:36:06;3.75;;;0.80;;
45970;SDS011;31681;48.982;8.394;2022-10-22T04:38:33;4.43;;;0.80;;
45970;SDS011;31681;48.982;8.394;2022-10-22T04:41:06;0.70;;;0.70;;
45970;SDS011;31681;48.982;8.394;2022-10-22T04:43:33;2.10;;;0.70;;
45970;SDS011;31681;48.982;8.394;2022-10-22T04:45:59;1.20;;;0.73;;
45970;SDS011;31681;48.982;8.394;2022-10-22T04:48:25;1.63;;;0.90;;
45970;SDS011;31681;48.982;8.394;2022-10-22T04:50:50;1.55;;;1.10;;
45970;SDS011;31681;48.982;8.394;2022-10-22T04:53:16;1.42;;;0.95;;
45970;SDS011;31681;48.982;8.394;2022-10-22T04:55:41;0.85;;;0.57;;
45970;SDS011;31681;48.982;8.394;2022-10-22T04:58:06;3.72;;;1.05;;
45970;SDS011;31681;48.982;8.394;2022-10-22T05:00:32;0.82;;;0.70;;
45970;SDS011;31681;48.982;8.394;2022-10-22T05:02:57;0.85;;;0.60;;
45970;SDS011;31681;48.982;8.394;2022-10-22T05:05:22;0.70;;;0.70;;
45970;SDS011;31681;48.982;8.394;2022-10-22T05:07:49;1.42;;;0.65;;
45970;SDS011;31681;48.982;8.394;2022-10-22T05:10:14;1.00;;;0.60;;
45970;SDS011;31681;48.982;8.394;2022-10-22T05:12:40;1.05;;;0.57;;
45970;SDS011;31681;48.982;8.394;2022-10-22T05:15:05;0.75;;;0.50;;
45970;SDS011;31681;48.982;8.394;2022-10-22T05:17:34;1.15;;;0.73;;
45970;SDS011;31681;48.982;8.394;2022-10-22T05:19:59;0.60;;;0.55;;
45970;SDS011;31681;48.982;8.394;2022-10-22T05:22:24;2.30;;;0.60;;
45970;SDS011;31681;48.982;8.394;2022-10-22T05:24:50;3.17;;;0.73;;
45970;SDS011;31681;48.982;8.394;2022-10-22T05:27:15;3.45;;;0.70;;
45970;SDS011;31681;48.982;8.394;2022-10-22T05:29:41;3.42;;;0.60;;
45970;SDS011;31681;48.982;8.394;2022-10-22T05:32:06;0.85;;;0.60;;
45970;SDS011;31681;48.982;8.394;2022-10-22T05:34:32;1.90;;;0.60;;
45970;SDS011;31681;48.982;8.394;2022-10-22T05:36:57;0.88;;;0.80;;
45970;SDS011;31681;48.982;8.394;2022-10-22T05:39:22;0.85;;;0.60;;
45970;SDS011;31681;48.982;8.394;2022-10-22T05:41:48;0.90;;;0.52;;
45970;SDS011;31681;48.982;8.394;2022-10-22T05:44:13;1.35;;;0.73;;
45970;SDS011;31681;48.982;8.394;2022-10-22T05:46:39;0.77;;;0.55;;
45970;SDS011;31681;48.982;8.394;2022-10-22T05:49:05;2.72;;;0.82;;
45970;SDS011;31681;48.982;8.394;2022-10-22T05:51:31;3.25;;;0.88;;
45970;SDS011;31681;48.982;8.394;2022-10-22T05:53:59;2.75;;;0.70;;
45970;SDS011;31681;48.982;8.394;2022-10-22T05:56:26;6.82;;;0.82;;
45970;SDS011;31681;48.982;8.394;2022-10-22T05:58:52;0.57;;;0.57;;
45970;SDS011;31681;48.982;8.394;2022-10-22T06:01:19;1.58;;;0.60;;
45970;SDS011;31681;48.982;8.394;2022-10-22T06:03:47;0.80;;;0.80;;
45970;SDS011;31681;48.982;8.394;2022-10-22T06:06:17;2.67;;;0.70;;
45970;SDS011;31681;48.982;8.394;2022-10-22T06:08:50;3.30;;;0.70;;
45970;SDS011;31681;48.982;8.394;2022-10-22T06:11:17;1.75;;;0.73;;
45970;SDS011;31681;48.982;8.394;2022-10-22T06:13:43;0.70;;;0.70;;
45970;SDS011;31681;48.982;8.394;2022-10-22T06:16:09;1.23;;;0.60;;
45970;SDS011;31681;48.982;8.394;2022-10-22T06:18:34;2.53;;;0.52;;
45970;SDS011;31681;48.982;8.394;2022-10-22T06:21:10;0.60;;;0.60;;
45970;SDS011;31681;48.982;8.394;2022-10-22T06:23:37;1.55;;;0.70;;
45970;SDS011;31681;48.982;8.394;2022-10-22T06:26:03;1.20;;;0.70;;
45970;SDS011;31681;48.982;8.394;2022-10-22T06:28:28;2.10;;;0.90;;
45970;SDS011;31681;48.982;8.394;2022-10-22T06:30:55;2.47;;;0.80;;
45970;SDS011;31681;48.982;8.394;2022-10-22T06:33:20;3.08;;;0.80;;
45970;SDS011;31681;48.982;8.394;2022-10-22T06:35:46;1.38;;;0.75;;
45970;SDS011;31681;48.982;8.394;2022-10-22T06:38:12;2.00;;;1.05;;
45970;SDS011;31681;48.982;8.394;2022-10-22T06:40:38;1.10;;;0.85;;
45970;SDS011;31681;48.982;8.394;2022-10-22T06:43:07;0.90;;;0.77;;
45970;SDS011;31681;48.982;8.394;2022-10-22T06:45:33;1.63;;;0.80;;
45970;SDS011;31681;48.982;8.394;2022-10-22T06:47:59;3.13;;;0.80;;
45970;SDS011;31681;48.982;8.394;2022-10-22T06:50:24;1.38;;;0.73;;
45970;SDS011;31681;48.982;8.394;2022-10-22T06:52:50;0.93;;;0.70;;
45970;SDS011;31681;48.982;8.394;2022-10-22T06:55:16;1.65;;;1.23;;
45970;SDS011;31681;48.982;8.394;2022-10-22T06:57:41;0.70;;;0.60;;
45970;SDS011;31681;48.982;8.394;2022-10-22T07:00:07;1.20;;;0.80;;
45970;SDS011;31681;48.982;8.394;2022-10-22T07:02:33;1.10;;;0.60;;
45970;SDS011;31681;48.982;8.394;2022-10-22T07:04:59;1.17;;;0.60;;
45970;SDS011;31681;48.982;8.394;2022-10-22T07:07:24;0.85;;;0.70;;
45970;SDS011;31681;48.982;8.394;2022-10-22T07:09:49;2.78;;;0.70;;
45970;SDS011;31681;48.982;8.394;2022-10-22T07:12:15;0.93;;;0.60;;
45970;SDS011;31681;48.982;8.394;2022-10-22T07:14:41;1.00;;;0.60;;
45970;SDS011;31681;48.982;8.394;2022-10-22T07:17:07;4.97;;;0.80;;
45970;SDS011;31681;48.982;8.394;2022-10-22T07:19:33;0.60;;;0.60;;
45970;SDS011;31681;48.982;8.394;2022-10-22T07:21:58;1.00;;;0.70;;
45970;SDS011;31681;48.982;8.394;2022-10-22T07:24:24;0.63;;;0.60;;
45970;SDS011;31681;48.982;8.394;2022-10-22T07:26:50;0.88;;;0.70;;
45970;SDS011;31681;48.982;8.394;2022-10-22T07:29:15;0.57;;;0.50;;
45970;SDS011;31681;48.982;8.394;2022-10-22T07:31:41;0.68;;;0.50;;
45970;SDS011;31681;48.982;8.394;2022-10-22T07:34:07;0.80;;;0.63;;
45970;SDS011;31681;48.982;8.394;2022-10-22T07:36:32;0.82;;;0.60;;
45970;SDS011;31681;48.982;8.394;2022-10-22T07:38:58;1.80;;;0.60;;
45970;SDS011;31681;48.982;8.394;2022-10-22T07:41:23;1.08;;;0.50;;
45970;SDS011;31681;48.982;8.394;2022-10-22T07:43:49;0.75;;;0.65;;
45970;SDS011;31681;48.982;8.394;2022-10-22T07:46:14;2.28;;;0.50;;
45970;SDS011;31681;48.982;8.394;2022-10-22T07:48:40;1.05;;;0.90;;
45970;SDS011;31681;48.982;8.394;2022-10-22T07:51:06;0.55;;;0.55;;
45970;SDS011;31681;48.982;8.394;2022-10-22T07:53:31;0.93;;;0.60;;
45970;SDS011;31681;48.982;8.394;2022-10-22T07:55:56;0.63;;;0.60;;
45970;SDS011;31681;48.982;8.394;2022-10-22T07:58:22;0.68;;;0.52;;
45970;SDS011;31681;48.982;8.394;2022-10-22T08:00:48;2.42;;;0.60;;
45970;SDS011;31681;48.982;8.394;2022-10-22T08:03:15;1.20;;;1.08;;
45970;SDS011;31681;48.982;8.394;2022-10-22T08:05:40;1.45;;;0.63;;
45970;SDS011;31681;48.982;8.394;2022-10-22T08:08:08;2.83;;;0.80;;
45970;SDS011;31681;48.982;8.394;2022-10-22T08:10:35;0.52;;;0.52;;
45970;SDS011;31681;48.982;8.394;2022-10-22T08:13:00;0.85;;;0.70;;
45970;SDS011;31681;48.982;8.394;2022-10-22T08:15:27;0.60;;;0.50;;
45970;SDS011;31681;48.982;8.394;2022-10-22T08:17:53;0.40;;;0.40;;
45970;SDS011;31681;48.982;8.394;2022-10-22T08:20:18;0.70;;;0.60;;
45970;SDS011;31681;48.982;8.394;2022-10-22T08:22:43;0.93;;;0.82;;
45970;SDS011;31681;48.982;8.394;2022-10-22T08:25:09;1.67;;;0.75;;
45970;SDS011;31681;48.982;8.394;2022-10-22T08:27:35;0.60;;;0.60;;
45970;SDS011;31681;48.982;8.394;2022-10-22T08:30:01;1.05;;;0.95;;
45970;SDS011;31681;48.982;8.394;2022-10-22T08:32:27;1.27;;;0.63;;
45970;SDS011;31681;48.982;8.394;2022-10-22T08:34:53;1.80;;;0.80;;
45970;SDS011;31681;48.982;8.394;2022-10-22T08:37:18;0.93;;;0.68;;
45970;SDS011;31681;48.982;8.394;2022-10-22T08:39:43;1.35;;;0.80;;
45970;SDS011;31681;48.982;8.394;2022-10-22T08:45:18;0.70;;;0.65;;
45970;SDS011;31681;48.982;8.394;2022-10-22T08:48:15;2.33;;;0.70;;
45970;SDS011;31681;48.982;8.394;2022-10-22T08:50:50;1.60;;;0.80;;
45970;SDS011;31681;48.982;8.394;2022-10-22T08:53:17;0.80;;;0.52;;
45970;SDS011;31681;48.982;8.394;2022-10-22T08:55:43;2.22;;;0.60;;
45970;SDS011;31681;48.982;8.394;2022-10-22T08:58:21;2.58;;;0.80;;
45970;SDS011;31681;48.982;8.394;2022-10-22T09:01:14;0.80;;;0.70;;
45970;SDS011;31681;48.982;8.394;2022-10-22T09:03:48;2.20;;;0.70;;
45970;SDS011;31681;48.982;8.394;2022-10-22T09:06:23;1.50;;;1.15;;
45970;SDS011;31681;48.982;8.394;2022-10-22T09:08:48;1.50;;;0.70;;
45970;SDS011;31681;48.982;8.394;2022-10-22T09:11:21;1.20;;;0.75;;
45970;SDS011;31681;48.982;8.394;2022-10-22T09:13:48;0.90;;;0.70;;
45970;SDS011;31681;48.982;8.394;2022-10-22T09:16:18;0.82;;;0.55;;
45970;SDS011;31681;48.982;8.394;2022-10-22T09:19:02;2.85;;;0.70;;
45970;SDS011;31681;48.982;8.394;2022-10-22T09:21:37;0.70;;;0.70;;
45970;SDS011;31681;48.982;8.394;2022-10-22T09:26:52;0.55;;;0.55;;
45970;SDS011;31681;48.982;8.394;2022-10-22T09:29:22;2.35;;;0.60;;
45970;SDS011;31681;48.982;8.394;2022-10-22T09:31:51;0.63;;;0.63;;
45970;SDS011;31681;48.982;8.394;2022-10-22T09:34:20;1.23;;;0.63;;
45970;SDS011;31681;48.982;8.394;2022-10-22T09:36:46;2.05;;;0.63;;
45970;SDS011;31681;48.982;8.394;2022-10-22T09:39:24;0.65;;;0.52;;
45970;SDS011;31681;48.982;8.394;2022-10-22T09:41:56;1.75;;;0.63;;
45970;SDS011;31681;48.982;8.394;2022-10-22T09:44:21;0.68;;;0.45;;
45970;SDS011;31681;48.982;8.394;2022-10-22T09:46:47;0.52;;;0.52;;
45970;SDS011;31681;48.982;8.394;2022-10-22T09:49:20;1.25;;;0.63;;
45970;SDS011;31681;48.982;8.394;2022-10-22T09:51:52;0.47;;;0.43;;
45970;SDS011;31681;48.982;8.394;2022-10-22T09:56:46;0.50;;;0.45;;
45970;SDS011;31681;48.982;8.394;2022-10-22T09:59:16;0.82;;;0.50;;
45970;SDS011;31681;48.982;8.394;2022-10-22T10:01:54;0.93;;;0.85;;
45970;SDS011;31681;48.982;8.394;2022-10-22T10:04:21;0.65;;;0.60;;
45970;SDS011;31681;48.982;8.394;2022-10-22T10:06:49;0.85;;;0.68;;
45970;SDS011;31681;48.982;8.394;2022-10-22T10:09:20;1.38;;;0.50;;
45970;SDS011;31681;48.982;8.394;2022-10-22T10:19:41;0.77;;;0.50;;
45970;SDS011;31681;48.982;8.394;2022-10-22T10:30:00;2.33;;;0.50;;
45970;SDS011;31681;48.982;8.394;2022-10-22T10:43:05;1.23;;;0.75;;
45970;SDS011;31681;48.982;8.394;2022-10-22T10:50:40;0.85;;;0.70;;
45970;SDS011;31681;48.982;8.394;2022-10-22T10:53:23;1.67;;;0.70;;
45970;SDS011;31681;48.982;8.394;2022-10-22T10:56:18;0.85;;;0.60;;
45970;SDS011;31681;48.982;8.394;2022-10-22T10:59:13;2.63;;;0.70;;
45970;SDS011;31681;48.982;8.394;2022-10-22T11:07:06;1.08;;;0.70;;
45970;SDS011;31681;48.982;8.394;2022-10-22T11:09:38;2.35;;;0.60;;
45970;SDS011;31681;48.982;8.394;2022-10-22T11:12:14;0.98;;;0.68;;
45970;SDS011;31681;48.982;8.394;2022-10-22T11:18:07;1.75;;;0.40;;
45970;SDS011;31681;48.982;8.394;2022-10-22T11:20:49;1.40;;;0.50;;
45970;SDS011;31681;48.982;8.394;2022-10-22T11:23:27;0.88;;;0.65;;
45970;SDS011;31681;48.982;8.394;2022-10-22T11:25:59;1.88;;;0.60;;
45970;SDS011;31681;48.982;8.394;2022-10-22T11:28:33;0.70;;;0.70;;
45970;SDS011;31681;48.982;8.394;2022-10-22T11:31:03;1.42;;;0.55;;
45970;SDS011;31681;48.982;8.394;2022-10-22T11:33:32;1.08;;;0.50;;
45970;SDS011;31681;48.982;8.394;2022-10-22T11:36:00;1.30;;;0.60;;
45970;SDS011;31681;48.982;8.394;2022-10-22T11:38:26;2.25;;;0.70;;
45970;SDS011;31681;48.982;8.394;2022-10-22T11:43:34;3.50;;;0.77;;
45970;SDS011;31681;48.982;8.394;2022-10-22T11:48:59;1.67;;;0.90;;
45970;SDS011;31681;48.982;8.394;2022-10-22T11:51:38;2.47;;;0.80;;
45970;SDS011;31681;48.982;8.394;2022-10-22T11:56:51;0.60;;;0.60;;
45970;SDS011;31681;48.982;8.394;2022-10-22T11:59:53;0.95;;;0.50;;
45970;SDS011;31681;48.982;8.394;2022-10-22T12:02:39;3.17;;;0.60;;
45970;SDS011;31681;48.982;8.394;2022-10-22T12:05:31;2.55;;;0.80;;
45970;SDS011;31681;48.982;8.394;2022-10-22T12:10:35;0.85;;;0.60;;
45970;SDS011;31681;48.982;8.394;2022-10-22T12:13:24;1.70;;;0.70;;
45970;SDS011;31681;48.982;8.394;2022-10-22T12:15:53;1.58;;;0.85;;
45970;SDS011;31681;48.982;8.394;2022-10-22T12:18:22;1.58;;;0.77;;
45970;SDS011;31681;48.982;8.394;2022-10-22T12:20:51;3.95;;;0.70;;
45970;SDS011;31681;48.982;8.394;2022-10-22T12:23:18;0.52;;;0.50;;
45970;SDS011;31681;48.982;8.394;2022-10-22T12:25:48;1.83;;;0.52;;
45970;SDS011;31681;48.982;8.394;2022-10-22T12:28:14;1.90;;;0.77;;
45970;SDS011;31681;48.982;8.394;2022-10-22T12:30:40;2.55;;;0.60;;
45970;SDS011;31681;48.982;8.394;2022-10-22T12:33:06;2.15;;;0.88;;
45970;SDS011;31681;48.982;8.394;2022-10-22T12:35:43;2.10;;;0.60;;
45970;SDS011;31681;48.982;8.394;2022-10-22T12:38:14;3.15;;;0.85;;
45970;SDS011;31681;48.982;8.394;2022-10-22T12:40:42;3.10;;;0.60;;
45970;SDS011;31681;48.982;8.394;2022-10-22T12:43:11;1.20;;;0.63;;
45970;SDS011;31681;48.982;8.394;2022-10-22T12:45:39;3.33;;;0.60;;
45970;SDS011;31681;48.982;8.394;2022-10-22T12:48:10;4.15;;;0.77;;
45970;SDS011;31681;48.982;8.394;2022-10-22T12:50:42;0.77;;;0.60;;
45970;SDS011;31681;48.982;8.394;2022-10-22T12:53:14;0.82;;;0.55;;
45970;SDS011;31681;48.982;8.394;2022-10-22T12:55:45;2.47;;;0.73;;
45970;SDS011;31681;48.982;8.394;2022-10-22T12:58:15;2.50;;;0.60;;
45970;SDS011;31681;48.982;8.394;2022-10-22T13:00:43;2.63;;;0.90;;
45970;SDS011;31681;48.982;8.394;2022-10-22T13:03:09;3.53;;;0.88;;
45970;SDS011;31681;48.982;8.394;2022-10-22T13:06:20;4.28;;;0.70;;
45970;SDS011;31681;48.982;8.394;2022-10-22T13:11:29;0.85;;;0.60;;
45970;SDS011;31681;48.982;8.394;2022-10-22T13:17:00;0.90;;;0.55;;
45970;SDS011;31681;48.982;8.394;2022-10-22T13:24:51;0.85;;;0.52;;
45970;SDS011;31681;48.982;8.394;2022-10-22T13:27:17;4.30;;;0.73;;
45970;SDS011;31681;48.982;8.394;2022-10-22T13:29:42;2.30;;;0.80;;
45970;SDS011;31681;48.982;8.394;2022-10-22T13:32:20;3.05;;;0.80;;
45970;SDS011;31681;48.982;8.394;2022-10-22T13:34:54;3.88;;;0.85;;
45970;SDS011;31681;48.982;8.394;2022-10-22T13:37:20;3.25;;;0.70;;
45970;SDS011;31681;48.982;8.394;2022-10-22T13:39:46;1.35;;;0.60;;
45970;SDS011;31681;48.982;8.394;2022-10-22T13:42:12;0.55;;;0.45;;
45970;SDS011;31681;48.982;8.394;2022-10-22T13:44:37;1.35;;;0.50;;
45970;SDS011;31681;48.982;8.394;2022-10-22T13:47:17;4.70;;;1.00;;
45970;SDS011;31681;48.982;8.394;2022-10-22T13:49:47;3.53;;;1.05;;
45970;SDS011;31681;48.982;8.394;2022-10-22T13:52:14;0.50;;;0.50;;
45970;SDS011;31681;48.982;8.394;2022-10-22T13:54:51;2.28;;;0.63;;
45970;SDS011;31681;48.982;8.394;2022-10-22T13:57:16;0.80;;;0.50;;
45970;SDS011;31681;48.982;8.394;2022-10-22T13:59:42;3.08;;;0.77;;
45970;SDS011;31681;48.982;8.394;2022-10-22T14:02:10;2.75;;;0.82;;
45970;SDS011;31681;48.982;8.394;2022-10-22T14:04:37;1.35;;;0.60;;
45970;SDS011;31681;48.982;8.394;2022-10-22T14:07:07;1.00;;;0.50;;
45970;SDS011;31681;48.982;8.394;2022-10-22T14:09:33;1.92;;;0.50;;
45970;SDS011;31681;48.982;8.394;2022-10-22T14:11:58;2.17;;;0.77;;
45970;SDS011;31681;48.982;8.394;2022-10-22T14:14:23;1.10;;;0.60;;
45970;SDS011;31681;48.982;8.394;2022-10-22T14:16:49;0.63;;;0.63;;
45970;SDS011;31681;48.982;8.394;2022-10-22T14:19:15;0.70;;;0.50;;
45970;SDS011;31681;48.982;8.394;2022-10-22T14:21:41;1.10;;;0.40;;
45970;SDS011;31681;48.982;8.394;2022-10-22T14:24:08;0.77;;;0.40;;
45970;SDS011;31681;48.982;8.394;2022-10-22T14:26:34;3.35;;;0.98;;
45970;SDS011;31681;48.982;8.394;2022-10-22T14:28:59;3.15;;;0.70;;
45970;SDS011;31681;48.982;8.394;2022-10-22T14:31:25;1.83;;;0.68;;
45970;SDS011;31681;48.982;8.394;2022-10-22T14:33:51;1.15;;;0.45;;
45970;SDS011;31681;48.982;8.394;2022-10-22T14:36:17;1.73;;;0.77;;
45970;SDS011;31681;48.982;8.394;2022-10-22T14:38:44;1.13;;;0.82;;
45970;SDS011;31681;48.982;8.394;2022-10-22T14:41:20;1.13;;;0.75;;
45970;SDS011;31681;48.982;8.394;2022-10-22T14:43:46;3.25;;;0.90;;
45970;SDS011;31681;48.982;8.394;2022-10-22T14:46:12;1.45;;;0.95;;
45970;SDS011;31681;48.982;8.394;2022-10-22T14:48:38;0.80;;;0.70;;
45970;SDS011;31681;48.982;8.394;2022-10-22T14:51:03;2.53;;;0.70;;
45970;SDS011;31681;48.982;8.394;2022-10-22T14:53:29;4.18;;;0.70;;
45970;SDS011;31681;48.982;8.394;2022-10-22T14:55:55;3.00;;;0.90;;
45970;SDS011;31681;48.982;8.394;2022-10-22T14:58:23;4.45;;;1.27;;
45970;SDS011;31681;48.982;8.394;2022-10-22T15:00:49;2.33;;;0.70;;
45970;SDS011;31681;48.982;8.394;2022-10-22T15:03:14;2.17;;;0.70;;
45970;SDS011;31681;48.982;8.394;2022-10-22T15:05:40;1.30;;;0.68;;
45970;SDS011;31681;48.982;8.394;2022-10-22T15:08:08;6.03;;;0.75;;
45970;SDS011;31681;48.982;8.394;2022-10-22T15:10:34;2.75;;;0.70;;
45970;SDS011;31681;48.982;8.394;2022-10-22T15:12:59;1.30;;;0.70;;
45970;SDS011;31681;48.982;8.394;2022-10-22T15:15:25;3.47;;;0.88;;
45970;SDS011;31681;48.982;8.394;2022-10-22T15:17:50;3.63;;;1.08;;
45970;SDS011;31681;48.982;8.394;2022-10-22T15:20:16;2.58;;;0.70;;
45970;SDS011;31681;48.982;8.394;2022-10-22T15:22:41;1.85;;;0.88;;
45970;SDS011;31681;48.982;8.394;2022-10-22T15:25:07;1.63;;;0.60;;
45970;SDS011;31681;48.982;8.394;2022-10-22T15:27:33;1.52;;;0.85;;
45970;SDS011;31681;48.982;8.394;2022-10-22T15:29:59;1.15;;;1.02;;
45970;SDS011;31681;48.982;8.394;2022-10-22T15:32:25;4.43;;;1.17;;
45970;SDS011;31681;48.982;8.394;2022-10-22T15:34:51;2.95;;;1.00;;
45970;SDS011;31681;48.982;8.394;2022-10-22T15:37:18;3.33;;;1.05;;
45970;SDS011;31681;48.982;8.394;2022-10-22T15:39:44;1.85;;;1.17;;
45970;SDS011;31681;48.982;8.394;2022-10-22T15:42:09;1.60;;;1.00;;
45970;SDS011;31681;48.982;8.394;2022-10-22T15:44:35;3.67;;;1.25;;
45970;SDS011;31681;48.982;8.394;2022-10-22T15:47:02;5.43;;;1.25;;
45970;SDS011;31681;48.982;8.394;2022-10-22T15:49:27;2.67;;;1.25;;
45970;SDS011;31681;48.982;8.394;2022-10-22T15:51:54;3.03;;;1.08;;
45970;SDS011;31681;48.982;8.394;2022-10-22T15:54:21;2.83;;;1.10;;
45970;SDS011;31681;48.982;8.394;2022-10-22T15:56:48;2.85;;;1.42;;
45970;SDS011;31681;48.982;8.394;2022-10-22T15:59:15;4.55;;;1.35;;
45970;SDS011;31681;48.982;8.394;2022-10-22T16:01:41;3.60;;;1.42;;
45970;SDS011;31681;48.982;8.394;2022-10-22T16:04:07;7.55;;;1.95;;
45970;SDS011;31681;48.982;8.394;2022-10-22T16:06:37;2.65;;;0.95;;
45970;SDS011;31681;48.982;8.394;2022-10-22T16:09:05;5.97;;;1.40;;
45970;SDS011;31681;48.982;8.394;2022-10-22T16:11:32;4.55;;;1.30;;
45970;SDS011;31681;48.982;8.394;2022-10-22T16:13:59;2.10;;;0.82;;
45970;SDS011;31681;48.982;8.394;2022-10-22T16:16:25;3.28;;;1.10;;
45970;SDS011;31681;48.982;8.394;2022-10-22T16:18:52;2.40;;;1.63;;
45970;SDS011;31681;48.982;8.394;2022-10-22T16:21:18;7.15;;;1.40;;
45970;SDS011;31681;48.982;8.394;2022-10-22T16:23:44;4.30;;;1.30;;
45970;SDS011;31681;48.982;8.394;2022-10-22T16:26:10;0.80;;;0.70;;
45970;SDS011;31681;48.982;8.394;2022-10-22T16:28:37;1.92;;;0.82;;
45970;SDS011;31681;48.982;8.394;2022-10-22T16:31:03;3.30;;;0.90;;